createdAt,value
2018-10-16T00:02:00.287Z,88.38
2018-10-16T00:04:30.452Z,89.76
2018-10-16T00:07:00.707Z,89.88
2018-10-16T00:09:30.921Z,89.83
2018-10-16T00:12:06.393Z,89.88
2018-10-16T00:14:36.711Z,90.17
2018-10-16T00:17:06.999Z,91.72
2018-10-16T00:19:37.179Z,92.10
2018-10-16T00:22:07.447Z,91.61
2018-10-16T00:24:37.697Z,91.79
2018-10-16T00:27:07.899Z,92.24
2018-10-16T00:29:38.085Z,92.32
2018-10-16T00:32:08.281Z,91.69
2018-10-16T00:34:38.445Z,91.09
2018-10-16T00:37:08.663Z,92.09
2018-10-16T00:39:38.817Z,93.27
2018-10-16T00:42:09.011Z,92.80
2018-10-16T00:44:39.289Z,92.77
2018-10-16T00:47:09.529Z,92.21
2018-10-16T00:49:39.793Z,91.47
2018-10-16T00:52:10.014Z,91.79
2018-10-16T00:54:40.328Z,91.45
2018-10-16T00:57:10.545Z,91.99
2018-10-16T00:59:40.751Z,92.18
2018-10-16T01:02:10.973Z,92.09
2018-10-16T01:04:41.151Z,92.05
2018-10-16T01:07:11.427Z,91.69
2018-10-16T01:09:41.643Z,92.29
2018-10-16T01:12:11.823Z,91.64
2018-10-16T01:14:42.019Z,92.55
2018-10-16T01:17:12.224Z,93.16
2018-10-16T01:19:42.432Z,92.58
2018-10-16T01:22:12.591Z,94.39
2018-10-16T01:24:42.842Z,94.64
2018-10-16T01:27:13.092Z,94.98
2018-10-16T01:29:43.275Z,94.57
2018-10-16T01:32:13.502Z,94.35
2018-10-16T01:34:43.689Z,94.30
2018-10-16T01:37:13.831Z,95.09
2018-10-16T01:39:44.080Z,95.00
2018-10-16T01:42:14.352Z,94.89
2018-10-16T01:44:44.573Z,95.36
2018-10-16T01:47:14.824Z,94.67
2018-10-16T01:49:45.043Z,95.29
2018-10-16T01:52:15.244Z,95.84
2018-10-16T01:54:45.456Z,95.96
2018-10-16T01:57:15.673Z,95.34
2018-10-16T01:59:45.838Z,96.02
2018-10-16T02:02:16.230Z,95.92
2018-10-16T02:04:46.351Z,95.91
2018-10-16T02:07:16.640Z,96.52
2018-10-16T02:09:46.772Z,96.32
2018-10-16T02:12:17.059Z,95.89
2018-10-16T02:14:47.321Z,95.19
2018-10-16T02:17:17.593Z,95.34
2018-10-16T02:19:47.812Z,95.14
2018-10-16T02:22:18.119Z,95.25
2018-10-16T02:24:48.358Z,95.71
2018-10-16T02:27:18.654Z,95.54
2018-10-16T02:29:48.811Z,95.87
2018-10-16T02:32:19.086Z,95.30
2018-10-16T02:34:49.244Z,96.03
2018-10-16T02:37:19.530Z,95.10
2018-10-16T02:39:50.077Z,94.63
2018-10-16T02:42:20.300Z,94.13
2018-10-16T02:44:53.608Z,93.90
2018-10-16T02:47:23.929Z,93.81
2018-10-16T02:49:54.277Z,94.77
2018-10-16T02:52:24.489Z,95.29
2018-10-16T02:54:54.696Z,96.17
2018-10-16T02:57:25.210Z,97.13
2018-10-16T02:59:55.516Z,97.17
2018-10-16T03:02:25.968Z,97.67
2018-10-16T03:04:56.678Z,98.11
2018-10-16T03:07:26.894Z,98.15
2018-10-16T03:09:57.144Z,97.62
2018-10-16T03:12:27.354Z,97.54
2018-10-16T03:14:57.539Z,97.79
2018-10-16T03:17:27.696Z,96.89
2018-10-16T03:19:57.848Z,97.39
2018-10-16T03:22:28.080Z,97.68
2018-10-16T03:24:58.242Z,97.14
2018-10-16T03:27:28.428Z,97.51
2018-10-16T03:29:58.611Z,97.68
2018-10-16T03:32:28.800Z,97.52
2018-10-16T03:34:58.985Z,97.30
2018-10-16T03:37:29.326Z,97.05
2018-10-16T03:39:59.606Z,97.35
2018-10-16T03:42:29.907Z,97.81
2018-10-16T03:45:00.246Z,97.15
2018-10-16T03:47:30.556Z,97.35
2018-10-16T03:50:00.835Z,97.53
2018-10-16T03:52:31.164Z,97.90
2018-10-16T03:55:01.362Z,98.66
2018-10-16T03:57:31.662Z,99.01
2018-10-16T04:00:01.973Z,99.02
2018-10-16T04:02:32.293Z,99.45
2018-10-16T04:05:02.454Z,99.00
2018-10-16T04:07:32.699Z,98.85
2018-10-16T04:10:02.885Z,99.00
2018-10-16T04:12:33.398Z,98.75
2018-10-16T04:15:03.601Z,98.60
2018-10-16T04:17:33.916Z,99.18
2018-10-16T04:20:04.378Z,99.08
2018-10-16T04:22:34.710Z,98.71
2018-10-16T04:25:04.893Z,99.17
2018-10-16T04:27:35.218Z,99.35
2018-10-16T04:30:06.424Z,99.22
2018-10-16T04:32:36.756Z,99.72
2018-10-16T04:35:12.873Z,99.76
2018-10-16T04:37:43.458Z,99.45
2018-10-16T04:40:13.741Z,98.96
2018-10-16T04:42:44.191Z,98.64
2018-10-16T04:45:14.504Z,98.96
2018-10-16T04:47:44.694Z,99.69
2018-10-16T04:50:14.977Z,98.99
2018-10-16T04:52:45.207Z,99.10
2018-10-16T04:55:15.575Z,98.60
2018-10-16T04:57:45.779Z,98.24
2018-10-16T05:00:16.054Z,97.99
2018-10-16T05:02:46.343Z,99.26
2018-10-16T05:05:23.021Z,99.32
2018-10-16T05:07:53.393Z,99.84
2018-10-16T05:10:23.784Z,100.00
2018-10-16T05:12:54.133Z,99.93
2018-10-16T05:15:30.185Z,98.83
2018-10-16T05:18:00.385Z,98.58
2018-10-16T05:20:30.705Z,98.51
2018-10-16T05:23:01.414Z,98.40
2018-10-16T05:25:31.848Z,98.42
2018-10-16T05:28:02.094Z,98.23
2018-10-16T05:30:32.409Z,98.45
2018-10-16T05:33:02.615Z,97.79
2018-10-16T05:35:32.847Z,99.48
2018-10-16T05:38:03.174Z,100.00
2018-10-16T05:40:33.519Z,99.16
2018-10-16T05:43:04.135Z,97.95
2018-10-16T05:45:36.388Z,97.69
2018-10-16T05:48:06.637Z,97.73
2018-10-16T05:50:36.955Z,97.90
2018-10-16T05:53:07.156Z,97.57
2018-10-16T05:55:37.344Z,96.80
2018-10-16T05:58:10.712Z,95.64
2018-10-16T06:00:47.150Z,95.75
2018-10-16T06:03:17.512Z,95.85
2018-10-16T06:05:47.804Z,96.94
2018-10-16T06:08:17.951Z,96.19
2018-10-16T06:10:48.213Z,95.79
2018-10-16T06:13:18.485Z,96.15
2018-10-16T06:15:48.751Z,95.53
2018-10-16T06:18:18.918Z,94.65
2018-10-16T06:20:55.698Z,94.22
2018-10-16T06:23:25.884Z,93.72
2018-10-16T06:25:56.484Z,93.11
2018-10-16T06:28:28.205Z,92.72
2018-10-16T06:30:58.440Z,92.86
2018-10-16T06:33:30.084Z,93.41
2018-10-16T06:36:00.299Z,93.01
2018-10-16T06:38:30.624Z,92.71
2018-10-16T06:41:01.088Z,92.25
2018-10-16T06:43:31.246Z,92.26
2018-10-16T06:46:01.542Z,92.78
2018-10-16T06:48:32.009Z,92.90
2018-10-16T06:51:01.923Z,92.74
2018-10-16T06:53:32.156Z,92.53
2018-10-16T06:56:02.336Z,92.43
2018-10-16T06:58:32.560Z,92.45
2018-10-16T07:01:02.844Z,91.65
2018-10-16T07:03:33.589Z,89.77
2018-10-16T07:06:03.777Z,88.93
2018-10-16T07:08:33.968Z,88.47
2018-10-16T07:11:04.328Z,87.15
2018-10-16T07:13:34.550Z,84.09
2018-10-16T07:16:05.074Z,84.33
2018-10-16T07:18:35.288Z,83.97
2018-10-16T07:21:05.641Z,83.72
2018-10-16T07:23:35.982Z,82.23
2018-10-16T07:26:06.614Z,81.49
2018-10-16T07:28:36.892Z,80.06
2018-10-16T07:31:07.164Z,79.02
2018-10-16T07:33:37.365Z,78.22
2018-10-16T07:36:07.689Z,77.11
2018-10-16T07:38:37.917Z,76.23
2018-10-16T07:41:08.176Z,75.95
2018-10-16T07:43:38.390Z,75.25
2018-10-16T07:46:08.594Z,73.59
2018-10-16T07:48:38.981Z,73.86
2018-10-16T07:51:09.135Z,72.53
2018-10-16T07:53:39.309Z,72.41
2018-10-16T07:56:09.511Z,71.93
2018-10-16T07:58:39.655Z,71.45
2018-10-16T08:01:09.896Z,70.10
2018-10-16T08:03:40.269Z,69.60
2018-10-16T08:06:10.481Z,69.06
2018-10-16T08:08:40.770Z,68.80
2018-10-16T08:11:11.023Z,68.17
2018-10-16T08:13:41.325Z,69.37
2018-10-16T08:16:11.559Z,68.21
2018-10-16T08:18:42.121Z,66.45
2018-10-16T08:21:12.327Z,62.95
2018-10-16T08:23:42.555Z,61.85
2018-10-16T08:26:12.775Z,59.61
2018-10-16T08:28:42.979Z,58.49
2018-10-16T08:31:13.229Z,59.98
2018-10-16T08:33:43.507Z,60.25
2018-10-16T08:36:13.876Z,58.81
2018-10-16T08:38:53.652Z,55.28
2018-10-16T08:41:34.622Z,53.80
2018-10-16T08:45:19.853Z,53.39
2018-10-16T08:48:01.034Z,51.03
2018-10-16T08:50:43.767Z,51.28
2018-10-16T08:53:14.000Z,50.20
2018-10-16T08:55:44.235Z,47.93
2018-10-16T08:58:14.409Z,47.06
2018-10-16T09:00:44.833Z,46.74
2018-10-16T09:03:15.082Z,46.87
2018-10-16T09:05:45.247Z,47.08
2018-10-16T09:08:15.463Z,45.29
2018-10-16T09:10:45.722Z,44.59
2018-10-16T09:13:16.177Z,42.41
2018-10-16T09:15:46.447Z,42.76
2018-10-16T09:18:16.602Z,42.49
2018-10-16T09:20:46.825Z,40.79
2018-10-16T09:23:17.107Z,40.23
2018-10-16T09:25:47.332Z,39.40
2018-10-16T09:28:17.560Z,39.84
2018-10-16T09:30:47.787Z,39.59
2018-10-16T09:33:17.983Z,38.38
2018-10-16T09:35:48.217Z,36.79
2018-10-16T09:38:18.449Z,36.83
2018-10-16T09:40:48.739Z,35.61
2018-10-16T09:43:18.994Z,35.78
2018-10-16T09:45:49.591Z,34.42
2018-10-16T09:48:19.962Z,34.62
2018-10-16T09:50:50.183Z,35.27
2018-10-16T09:53:20.549Z,34.44
2018-10-16T09:55:50.937Z,34.79
2018-10-16T09:58:21.332Z,33.90
2018-10-16T10:00:57.028Z,34.22
2018-10-16T10:03:27.209Z,34.97
2018-10-16T10:05:57.546Z,34.20
2018-10-16T10:08:27.931Z,33.70
2018-10-16T10:10:58.300Z,32.46
2018-10-16T10:13:28.559Z,32.05
2018-10-16T10:15:58.837Z,32.49
2018-10-16T10:18:29.169Z,31.97
2018-10-16T10:20:59.408Z,30.88
2018-10-16T10:23:29.685Z,31.56
2018-10-16T10:25:59.888Z,32.13
2018-10-16T10:28:30.204Z,31.88
2018-10-16T10:31:00.507Z,32.71
2018-10-16T10:33:30.851Z,31.91
2018-10-16T10:36:01.596Z,31.60
2018-10-16T10:38:31.804Z,31.73
2018-10-16T10:41:02.087Z,31.31
2018-10-16T10:43:32.337Z,30.22
2018-10-16T10:46:02.694Z,29.97
2018-10-16T10:48:33.028Z,28.76
2018-10-16T10:51:03.701Z,28.97
2018-10-16T10:53:33.704Z,28.40
2018-10-16T10:56:04.046Z,28.64
2018-10-16T10:58:34.399Z,29.32
2018-10-16T11:01:04.738Z,28.54
2018-10-16T11:03:35.309Z,28.08
2018-10-16T11:06:05.639Z,28.11
2018-10-16T11:08:36.061Z,27.71
2018-10-16T11:11:06.486Z,28.55
2018-10-16T11:13:37.320Z,28.92
2018-10-16T11:16:07.652Z,28.42
2018-10-16T11:18:38.180Z,27.56
2018-10-16T11:21:08.493Z,27.32
2018-10-16T11:23:38.910Z,29.21
2018-10-16T11:26:11.128Z,28.25
2018-10-16T11:28:41.513Z,28.21
2018-10-16T11:31:11.806Z,29.05
2018-10-16T11:33:42.301Z,28.29
2018-10-16T11:36:12.623Z,27.51
2018-10-16T11:38:43.005Z,27.89
2018-10-16T11:41:13.221Z,27.86
2018-10-16T11:43:44.068Z,26.93
2018-10-16T11:46:14.421Z,25.88
2018-10-16T11:48:44.690Z,27.57
2018-10-16T11:51:15.051Z,27.39
2018-10-16T11:54:11.459Z,25.74
2018-10-16T11:56:41.723Z,24.91
2018-10-16T11:59:12.377Z,25.05
2018-10-16T12:01:42.653Z,25.52
2018-10-16T12:04:12.948Z,24.12
2018-10-16T12:06:43.285Z,23.89
2018-10-16T12:09:13.569Z,25.36
2018-10-16T12:11:43.881Z,25.54
2018-10-16T12:14:14.241Z,25.87
2018-10-16T12:17:48.327Z,25.62
2018-10-16T12:20:25.711Z,24.73
2018-10-16T12:22:56.087Z,24.22
2018-10-16T12:25:27.201Z,25.64
2018-10-16T12:27:57.665Z,25.89
2018-10-16T12:30:27.981Z,26.62
2018-10-16T12:32:59.444Z,26.23
2018-10-16T12:35:29.831Z,25.30
2018-10-16T12:38:00.226Z,24.42
2018-10-16T12:40:30.766Z,23.31
2018-10-16T12:43:01.393Z,23.63
2018-10-16T12:45:31.657Z,23.52
2018-10-16T12:48:02.076Z,24.73
2018-10-16T12:50:32.285Z,25.12
2018-10-16T12:53:02.576Z,24.52
2018-10-16T12:55:33.095Z,24.93
2018-10-16T12:58:03.325Z,25.90
2018-10-16T13:00:33.575Z,25.72
2018-10-16T13:03:03.971Z,24.71
2018-10-16T13:05:34.357Z,23.92
2018-10-16T13:08:05.099Z,23.58
2018-10-16T13:10:35.221Z,22.01
2018-10-16T13:13:05.542Z,20.57
2018-10-16T13:15:35.794Z,21.81
2018-10-16T13:18:06.362Z,22.61
2018-10-16T13:20:36.607Z,23.09
2018-10-16T13:23:07.248Z,24.15
2018-10-16T13:25:37.527Z,24.85
2018-10-16T13:28:07.854Z,25.48
2018-10-16T13:30:38.164Z,25.13
2018-10-16T13:33:08.436Z,24.71
2018-10-16T13:35:38.773Z,24.46
2018-10-16T13:38:09.067Z,24.47
2018-10-16T13:40:39.470Z,23.41
2018-10-16T13:43:09.720Z,24.70
2018-10-16T13:45:39.969Z,26.18
2018-10-16T13:48:10.358Z,29.43
2018-10-16T13:50:40.562Z,29.24
2018-10-16T13:53:11.137Z,31.95
2018-10-16T13:55:41.536Z,31.72
2018-10-16T13:58:11.992Z,31.75
2018-10-16T14:00:42.142Z,32.15
2018-10-16T14:03:12.480Z,32.67
2018-10-16T14:05:42.678Z,33.03
2018-10-16T14:08:13.030Z,33.88
2018-10-16T14:10:43.222Z,32.50
2018-10-16T14:13:13.499Z,33.67
2018-10-16T14:15:43.695Z,33.26
2018-10-16T14:18:13.969Z,31.90
2018-10-16T14:20:44.273Z,33.50
2018-10-16T14:23:14.452Z,33.89
2018-10-16T14:25:44.931Z,33.41
2018-10-16T14:28:15.330Z,31.84
2018-10-16T14:30:45.526Z,32.86
2018-10-16T14:33:15.816Z,33.18
2018-10-16T14:35:46.148Z,31.97
2018-10-16T14:38:16.446Z,32.15
2018-10-16T14:40:46.733Z,30.79
2018-10-16T14:43:17.008Z,29.14
2018-10-16T14:45:47.264Z,27.98
2018-10-16T14:48:17.635Z,29.06
2018-10-16T14:50:47.956Z,30.94
2018-10-16T14:53:18.445Z,32.78
2018-10-16T14:55:48.840Z,32.96
2018-10-16T14:58:19.256Z,31.67
2018-10-16T15:00:49.631Z,30.50
2018-10-16T15:03:19.959Z,29.73
2018-10-16T15:05:50.387Z,28.01
2018-10-16T15:08:20.820Z,28.02
2018-10-16T15:10:51.173Z,26.95
2018-10-16T15:13:21.719Z,27.59
2018-10-16T15:15:52.228Z,29.47
2018-10-16T15:18:22.630Z,31.25
2018-10-16T15:20:53.055Z,32.42
2018-10-16T15:23:23.682Z,34.47
2018-10-16T15:25:54.097Z,35.69
2018-10-16T15:28:24.549Z,36.68
2018-10-16T15:30:55.025Z,37.35
2018-10-16T15:33:25.392Z,36.63
2018-10-16T15:35:56.014Z,36.22
2018-10-16T15:38:26.390Z,36.36
2018-10-16T15:40:56.763Z,35.96
2018-10-16T15:43:27.058Z,35.97
2018-10-16T15:45:57.373Z,36.32
2018-10-16T15:48:27.655Z,37.48
2018-10-16T15:50:57.981Z,37.87
2018-10-16T15:53:28.239Z,38.27
2018-10-16T15:55:58.685Z,38.25
2018-10-16T15:58:29.037Z,38.54
2018-10-16T16:01:02.529Z,39.77
2018-10-16T16:03:32.787Z,39.85
2018-10-16T16:06:03.081Z,40.30
2018-10-16T16:08:33.423Z,40.95
2018-10-16T16:11:03.792Z,41.34
2018-10-16T16:13:34.077Z,41.94
2018-10-16T16:16:04.439Z,42.69
2018-10-16T16:18:34.770Z,43.30
2018-10-16T16:21:05.293Z,43.94
2018-10-16T16:23:35.557Z,44.39
2018-10-16T16:26:06.028Z,44.51
2018-10-16T16:28:36.539Z,44.36
2018-10-16T16:31:06.990Z,45.72
2018-10-16T16:33:37.377Z,46.95
2018-10-16T16:36:07.712Z,48.25
2018-10-16T16:38:38.037Z,49.21
2018-10-16T16:41:08.360Z,48.47
2018-10-16T16:43:38.753Z,49.08
2018-10-16T16:46:09.041Z,49.70
2018-10-16T16:48:42.970Z,50.06
2018-10-16T16:51:13.292Z,50.02
2018-10-16T16:53:43.599Z,50.40
2018-10-16T16:56:13.947Z,51.21
2018-10-16T16:58:44.262Z,52.00
2018-10-16T17:01:14.563Z,53.39
2018-10-16T17:03:44.910Z,54.35
2018-10-16T17:06:15.187Z,54.76
2018-10-16T17:08:45.532Z,54.79
2018-10-16T17:11:17.910Z,55.07
2018-10-16T17:13:48.236Z,55.08
2018-10-16T17:16:22.249Z,55.88
2018-10-16T17:18:55.180Z,58.53
2018-10-16T17:21:25.589Z,58.43
2018-10-16T17:23:55.894Z,57.88
2018-10-16T17:26:26.358Z,58.77
2018-10-16T17:28:56.664Z,58.81
2018-10-16T17:31:26.906Z,59.43
2018-10-16T17:33:57.370Z,60.67
2018-10-16T17:36:27.800Z,60.30
2018-10-16T17:38:58.424Z,60.59
2018-10-16T17:41:28.866Z,61.44
2018-10-16T17:43:59.429Z,61.07
2018-10-16T17:46:29.890Z,60.89
2018-10-16T17:49:00.169Z,62.89
2018-10-16T17:51:30.849Z,64.66
2018-10-16T17:54:01.202Z,64.16
2018-10-16T17:56:31.554Z,63.00
2018-10-16T17:59:01.923Z,64.48
2018-10-16T18:01:38.425Z,64.82
2018-10-16T18:04:09.022Z,65.19
2018-10-16T18:06:39.519Z,66.76
2018-10-16T18:09:09.938Z,67.16
2018-10-16T18:11:40.184Z,65.63
2018-10-16T18:14:10.515Z,65.60
2018-10-16T18:16:42.397Z,65.53
2018-10-16T18:19:12.711Z,65.41
2018-10-16T18:21:42.949Z,67.15
2018-10-16T18:24:13.421Z,66.82
2018-10-16T18:26:43.655Z,67.27
2018-10-16T18:29:14.020Z,67.64
2018-10-16T18:31:44.397Z,69.57
2018-10-16T18:34:14.739Z,69.89
2018-10-16T18:36:45.091Z,69.33
2018-10-16T18:39:15.442Z,69.37
2018-10-16T18:41:46.967Z,69.06
2018-10-16T18:44:17.338Z,69.93
2018-10-16T18:46:47.642Z,70.70
2018-10-16T18:49:18.046Z,72.72
2018-10-16T18:51:48.327Z,70.98
2018-10-16T18:54:18.716Z,71.00
2018-10-16T18:56:48.949Z,70.26
2018-10-16T18:59:19.261Z,70.70
2018-10-16T19:01:49.509Z,72.40
2018-10-16T19:04:19.853Z,71.59
2018-10-16T19:06:50.135Z,71.76
2018-10-16T19:09:20.373Z,73.14
2018-10-16T19:11:50.697Z,75.01
2018-10-16T19:14:20.935Z,74.47
2018-10-16T19:16:51.235Z,74.54
2018-10-16T19:19:21.684Z,73.64
2018-10-16T19:21:52.112Z,75.50
2018-10-16T19:24:22.431Z,76.41
2018-10-16T19:26:52.736Z,75.80
2018-10-16T19:29:23.153Z,76.73
2018-10-16T19:31:53.488Z,75.54
2018-10-16T19:34:23.841Z,75.57
2018-10-16T19:36:54.212Z,76.14
2018-10-16T19:39:24.525Z,76.00
2018-10-16T19:41:54.894Z,77.17
2018-10-16T19:44:25.241Z,76.95
2018-10-16T19:46:55.657Z,76.12
2018-10-16T19:49:26.022Z,75.46
2018-10-16T19:51:56.352Z,75.84
2018-10-16T19:54:26.715Z,76.04
2018-10-16T19:56:57.111Z,76.30
2018-10-16T19:59:27.393Z,76.66
2018-10-16T20:01:57.639Z,76.34
2018-10-16T20:04:28.366Z,76.46
2018-10-16T20:06:58.714Z,76.39
2018-10-16T20:09:29.061Z,77.77
2018-10-16T20:11:59.322Z,78.53
2018-10-16T20:14:30.090Z,78.30
2018-10-16T20:17:00.674Z,79.66
2018-10-16T20:19:31.064Z,80.15
2018-10-16T20:22:01.337Z,79.53
2018-10-16T20:24:31.607Z,78.61
2018-10-16T20:27:01.977Z,78.40
2018-10-16T20:29:32.324Z,78.16
2018-10-16T20:32:02.567Z,79.10
2018-10-16T20:34:33.098Z,79.80
2018-10-16T20:37:03.385Z,79.36
2018-10-16T20:39:33.754Z,79.27
2018-10-16T20:42:03.993Z,80.83
2018-10-16T20:44:34.365Z,80.23
2018-10-16T20:47:04.907Z,81.17
2018-10-16T20:49:35.146Z,80.90
2018-10-16T20:52:05.542Z,81.05
2018-10-16T20:54:35.959Z,82.47
2018-10-16T20:57:06.493Z,82.84
2018-10-16T20:59:36.865Z,83.48
2018-10-16T21:02:07.301Z,84.37
2018-10-16T21:04:37.671Z,84.52
2018-10-16T21:07:08.206Z,84.77
2018-10-16T21:09:38.559Z,84.87
2018-10-16T21:12:08.909Z,84.46
2018-10-16T21:14:39.382Z,84.57
2018-10-16T21:17:09.617Z,84.79
2018-10-16T21:19:40.036Z,85.21
2018-10-16T21:22:10.129Z,85.87
2018-10-16T21:24:40.369Z,86.35
2018-10-16T21:27:11.941Z,86.12
2018-10-16T21:29:42.216Z,86.63
2018-10-16T21:32:12.421Z,87.91
2018-10-16T21:34:42.669Z,87.89
2018-10-16T21:37:12.949Z,88.09
2018-10-16T21:39:43.238Z,88.81
2018-10-16T21:42:13.589Z,89.32
2018-10-16T21:44:43.903Z,88.61
2018-10-16T21:47:14.292Z,88.33
2018-10-16T21:49:44.535Z,88.13
2018-10-16T21:52:14.889Z,88.21
2018-10-16T21:54:45.149Z,87.85
2018-10-16T21:57:15.397Z,87.22
2018-10-16T21:59:45.897Z,87.44
2018-10-16T22:02:21.471Z,88.21
2018-10-16T22:04:52.191Z,87.61
2018-10-16T22:07:22.991Z,88.29
2018-10-16T22:09:53.614Z,88.64
2018-10-16T22:12:25.642Z,88.20
2018-10-16T22:14:56.049Z,88.22
2018-10-16T22:17:26.332Z,88.84
2018-10-16T22:19:56.615Z,90.02
2018-10-16T22:22:26.982Z,89.90
2018-10-16T22:24:57.357Z,90.39
2018-10-16T22:27:27.817Z,90.28
2018-10-16T22:29:58.162Z,89.23
2018-10-16T22:32:28.364Z,90.12
2018-10-16T22:34:58.698Z,90.49
2018-10-16T22:37:29.096Z,90.80
2018-10-16T22:39:59.440Z,90.45
2018-10-16T22:42:29.731Z,91.15
2018-10-16T22:45:00.250Z,90.60
2018-10-16T22:47:30.620Z,90.31
2018-10-16T22:50:00.863Z,92.51
2018-10-16T22:52:31.196Z,93.26
2018-10-16T22:55:01.509Z,91.63
2018-10-16T22:57:31.723Z,91.68
2018-10-16T23:00:02.026Z,92.63
2018-10-16T23:02:32.290Z,91.60
2018-10-16T23:05:02.618Z,92.18
2018-10-16T23:07:32.900Z,91.79
2018-10-16T23:10:03.152Z,92.69
2018-10-16T23:12:33.568Z,93.37
2018-10-16T23:15:03.876Z,93.02
2018-10-16T23:17:34.118Z,92.59
2018-10-16T23:20:05.260Z,92.20
2018-10-16T23:22:35.730Z,94.06
2018-10-16T23:25:06.426Z,94.37
2018-10-16T23:27:37.690Z,93.54
2018-10-16T23:30:08.046Z,94.37
2018-10-16T23:32:38.602Z,94.01
2018-10-16T23:35:08.970Z,93.25
2018-10-16T23:37:39.224Z,92.92
2018-10-16T23:40:09.576Z,94.61
2018-10-16T23:42:40.189Z,94.10
2018-10-16T23:45:10.786Z,94.74
2018-10-16T23:47:41.456Z,94.07
2018-10-16T23:50:11.988Z,94.06
2018-10-16T23:52:42.613Z,94.94
2018-10-16T23:55:13.213Z,95.73
2018-10-16T23:57:43.598Z,96.22
